Mt Baker
Mt. Baker Ski Area
Latest observation 09/03 17:00 PDT
| Time (PDT) | Temp °F 5020' | Temp °F 4210' | RH % 5020' | RH % 4210' | Min mph 5020' | Spd mph 5020' | Gust mph 5020' | Dir ° 5020' | Pcp1 in 4210' | PcpSum in 4210' | 24Sno in 4210' | SnoHt in 4210' | SR W/m² 5020' |
|---|---|---|---|---|---|---|---|---|---|---|---|---|---|
| 09/03 17:00 | 46 | 50 | 69 | 61 | 5 | 9 | 13 | 189 | 0.00 | 0.43 | 36.9 | 6.8 | 482 |
| 09/03 16:00 | 44 | 51 | 71 | 59 | 6 | 10 | 16 | 169 | 0.00 | 0.43 | 33.4 | 7.4 | 618 |
| 09/03 15:00 | 44 | 49 | 78 | 68 | 4 | 9 | 13 | 189 | 0.00 | 0.43 | 32.9 | 7.1 | 591 |
| 09/03 14:00 | 42 | 47 | 84 | 72 | 6 | 10 | 15 | 195 | 0.00 | 0.43 | 32.7 | 5.8 | 320 |
| 09/03 13:00 | 41 | 46 | 86 | 76 | 4 | 11 | 17 | 188 | 0.00 | 0.43 | 33.0 | 6.3 | 284 |
| 09/03 12:00 | 39 | 44 | 92 | 84 | 1 | 7 | 12 | 205 | 0.00 | 0.43 | 31.8 | 7.6 | 325 |
| 09/03 11:00 | 40 | 45 | 88 | 76 | 4 | 8 | 13 | 202 | 0.00 | 0.43 | 31.0 | 6.8 | 316 |
| 09/03 10:00 | 38 | 43 | 92 | 82 | 4 | 9 | 13 | 185 | 0.00 | 0.43 | 31.7 | 6.4 | 191 |
| 09/03 09:00 | 39 | 43 | 85 | 78 | 6 | 10 | 18 | 171 | 0.00 | 0.43 | 31.8 | 5.9 | 254 |
| 09/03 08:00 | 39 | 42 | 84 | 78 | 7 | 13 | 18 | 186 | 0.00 | 0.43 | 32.9 | 7.2 | 132 |
| 09/03 07:00 | 38 | 41 | 88 | 80 | 10 | 16 | 21 | 193 | 0.00 | 0.43 | 33.7 | 7.8 | 3 |
| 09/03 06:00 | 38 | 41 | 87 | 80 | 12 | 16 | 21 | 192 | 0.00 | 0.43 | 33.4 | 7.5 | 0 |
| 09/03 05:00 | 38 | 42 | 83 | 77 | 12 | 18 | 25 | 181 | 0.00 | 0.43 | 33.4 | 5.8 | 0 |
| 09/03 04:00 | 38 | 41 | 86 | 82 | 6 | 15 | 21 | 193 | 0.00 | 0.43 | 34.0 | 6.5 | 0 |
| 09/03 03:00 | 38 | 42 | 86 | 80 | 9 | 20 | 28 | 176 | 0.00 | 0.43 | 33.9 | 5.9 | 0 |
| 09/03 02:00 | 38 | 42 | 88 | 80 | 14 | 22 | 32 | 174 | 0.00 | 0.43 | 34.1 | 6.6 | 0 |
| 09/03 01:00 | 38 | 42 | 85 | 79 | 1 | 15 | 30 | 182 | 0.00 | 0.43 | 34.2 | 7.2 | 0 |
| 09/03 00:00 | 38 | 42 | 90 | 84 | 8 | 19 | 34 | 182 | 0.00 | 0.43 | 34.8 | 8.0 | 0 |
| 09/02 23:00 | 38 | 42 | 91 | 83 | 13 | 26 | 40 | 180 | 0.00 | 0.43 | 35.0 | 9.1 | 0 |
| 09/02 22:00 | 40 | 44 | 90 | 83 | 13 | 31 | 43 | 186 | 0.00 | 0.43 | 34.5 | 9.0 | 0 |
| 09/02 21:00 | 41 | 44 | 95 | 93 | 2 | 14 | 43 | 200 | 0.12 | 0.43 | 35.0 | 7.8 | 0 |
| 09/02 20:00 | 41 | 44 | 92 | 90 | 2 | 10 | 27 | 189 | 0.08 | 0.31 | 37.4 | 8.1 | 3 |
| 09/02 19:00 | 41 | 44 | 90 | 87 | 6 | 31 | 58 | 186 | 0.21 | 0.23 | 37.6 | 8.7 | 11 |
| 09/02 18:00 | 44 | 48 | 94 | 88 | 2 | 8 | 16 | 190 | 0.02 | 0.02 | 38.1 | 8.3 | 46 |

